Time;durP1;ratioP1;P1;durP2;ratioP2;P2;SDS_P1;SDS_P2;PMS_P1;PMS_P2;Temp;Humidity;BMP_temperature;BMP_pressure;BME280_temperature;BME280_humidity;BME280_pressure;Samples;Min_cycle;Max_cycle;Signal;HPM_P1;HPM_P2
2023/01/28 00:00:24;;;;;;;;;30.67;24.67;;;;;6.09;62.57;102522.81;2010755;27;3573164;-83
2023/01/28 00:01:36;;;;;;;;;34.20;29.60;;;;;6.08;62.78;102521.94;2044484;27;3597109;-83
2023/01/28 00:02:48;;;;;;;;;37.00;33.00;;;;;6.10;62.33;102523.72;2026584;27;3591885;-83
2023/01/28 00:04:00;;;;;;;;;34.60;30.00;;;;;6.10;62.59;102524.56;2025576;27;3604422;-83
2023/01/28 00:05:12;;;;;;;;;37.67;27.33;;;;;6.08;62.73;102518.44;2022641;27;3608700;-84
2023/01/28 00:06:24;;;;;;;;;34.80;30.60;;;;;6.10;62.83;102526.31;2025727;27;3592925;-83
2023/01/28 00:07:36;;;;;;;;;38.33;32.00;;;;;6.10;62.48;102521.94;2016471;27;3594033;-83
2023/01/28 00:08:48;;;;;;;;;36.40;27.80;;;;;6.07;62.53;102522.78;2023803;27;3604349;-83
2023/01/28 00:10:00;;;;;;;;;35.33;29.67;;;;;6.08;62.59;102521.94;2010469;28;3604397;-83
2023/01/28 00:11:13;;;;;;;;;37.80;25.60;;;;;6.07;62.41;102522.78;2016842;28;3623111;-83
2023/01/28 00:12:25;;;;;;;;;33.20;27.60;;;;;6.10;62.43;102528.94;2015851;27;3603328;-83
2023/01/28 00:13:35;;;;;;;;;34.00;28.00;;;;;6.05;62.69;102516.63;2004511;27;2856487;-83
2023/01/28 00:14:47;;;;;;;;;35.80;29.80;;;;;6.06;62.74;102523.63;2021100;28;3595043;-83
2023/01/28 00:16:03;;;;;;;;;28.67;25.67;;;;;6.06;62.46;102523.63;2013033;28;3580431;-83
2023/01/28 00:17:14;;;;;;;;;36.67;26.33;;;;;6.08;62.44;102521.06;2016421;28;3609638;-83
2023/01/28 00:18:27;;;;;;;;;33.60;30.60;;;;;6.05;62.56;102531.44;2025427;27;3596048;-85
2023/01/28 00:19:39;;;;;;;;;42.33;33.67;;;;;6.05;62.73;102519.25;2033636;27;3618925;-83
2023/01/28 00:20:58;;;;;;;;;36.00;29.33;;;;;6.08;62.48;102528.88;2037784;27;3599177;-83
2023/01/28 00:22:10;;;;;;;;;33.67;28.67;;;;;6.07;62.52;102519.31;2022797;28;3583615;-83
2023/01/28 00:23:22;;;;;;;;;32.33;25.33;;;;;6.06;62.83;102518.41;2006290;28;3587178;-83
2023/01/28 00:24:34;;;;;;;;;29.67;26.33;;;;;6.12;62.50;102524.59;2044031;27;3588812;-83
2023/01/28 00:25:45;;;;;;;;;26.67;24.00;;;;;6.10;62.54;102524.56;2047006;27;3581510;-83
2023/01/28 00:26:57;;;;;;;;;33.67;29.33;;;;;6.11;61.97;102525.44;2047417;27;3595038;-84
2023/01/28 00:28:09;;;;;;;;;31.40;28.40;;;;;6.13;62.63;102516.78;2046846;27;3593939;-83
2023/01/28 00:29:21;;;;;;;;;32.40;26.40;;;;;6.11;62.19;102517.63;2020522;27;3578320;-84
2023/01/28 00:30:33;;;;;;;;;36.33;27.33;;;;;6.10;62.26;102523.72;2015222;27;3609621;-84
2023/01/28 00:31:45;;;;;;;;;41.67;29.33;;;;;6.06;62.07;102517.53;2011780;28;3626307;-83
2023/01/28 00:32:57;;;;;;;;;29.40;26.40;;;;;6.04;62.16;102525.34;2019299;27;3573148;-83
2023/01/28 00:34:09;;;;;;;;;37.80;31.80;;;;;6.02;62.61;102520.94;2043703;27;3601952;-83
2023/01/28 00:35:21;;;;;;;;;40.20;30.80;;;;;6.02;62.59;102523.56;2018320;27;3612702;-83
2023/01/28 00:36:38;;;;;;;;;35.67;27.00;;;;;6.05;62.45;102521.00;2014841;28;3602390;-83
2023/01/28 00:37:49;;;;;;;;;28.00;21.00;;;;;6.07;62.30;102521.94;1991845;28;3591894;-83
2023/01/28 00:39:01;;;;;;;;;27.33;27.33;;;;;6.13;62.03;102526.34;2039857;28;3575228;-83
2023/01/28 00:40:13;;;;;;;;;30.80;23.00;;;;;6.13;61.89;102518.50;2039751;27;3592943;-83
2023/01/28 00:41:27;;;;;;;;;37.00;25.00;;;;;6.16;62.19;102531.63;2013205;28;3608639;-83
2023/01/28 00:42:39;;;;;;;;;36.67;28.67;;;;;6.15;62.32;102529.88;2007370;27;3607511;-83
2023/01/28 00:43:52;;;;;;;;;38.33;28.33;;;;;6.16;62.42;102518.56;2013587;27;3614821;-83
2023/01/28 00:45:03;;;;;;;;;34.00;26.00;;;;;6.18;62.07;102530.78;1993937;27;2866963;-83
2023/01/28 00:46:15;;;;;;;;;29.20;26.60;;;;;6.18;62.21;102522.06;2005371;28;3571054;-84
2023/01/28 00:47:26;;;;;;;;;30.00;27.33;;;;;6.18;62.04;102511.63;2022645;27;3596176;-83
2023/01/28 00:48:40;;;;;;;;;32.67;27.33;;;;;6.18;62.15;102512.50;2038269;27;3592932;-83
2023/01/28 00:49:52;;;;;;;;;37.33;27.00;;;;;6.19;62.06;102516.91;2001029;27;3606476;-83
2023/01/28 00:51:04;;;;;;;;;38.67;31.67;;;;;6.17;62.19;102509.88;2017014;28;3597133;-83
2023/01/28 00:52:18;;;;;;;;;25.17;21.00;;;;;6.18;62.02;102520.34;2033789;27;1845101;-83
2023/01/28 00:53:29;;;;;;;;;31.00;28.00;;;;;6.18;61.94;102514.25;2008569;27;3570039;-83
2023/01/28 00:54:41;;;;;;;;;32.00;28.00;;;;;6.17;61.75;102515.09;2025955;27;3596071;-83
2023/01/28 00:55:53;;;;;;;;;27.00;24.67;;;;;6.17;61.79;102517.72;2041218;27;3579387;-83
2023/01/28 00:57:06;;;;;;;;;25.00;21.33;;;;;6.16;61.68;102518.56;2025057;27;3576281;-83
2023/01/28 00:58:18;;;;;;;;;35.67;28.00;;;;;6.14;61.49;102515.94;2017239;28;3599220;-83
2023/01/28 00:59:30;;;;;;;;;39.40;26.80;;;;;6.12;62.02;102508.94;2019433;27;3606441;-83
2023/01/28 01:00:42;;;;;;;;;27.67;24.00;;;;;6.08;62.13;102511.50;2026074;27;3581482;-83
2023/01/28 01:02:11;;;;;;;;;31.40;25.40;;;;;6.11;62.03;102513.28;2028664;27;3596047;-83
2023/01/28 01:03:22;;;;;;;;;35.50;24.00;;;;;6.11;61.63;102512.41;2006879;27;2865937;-83
2023/01/28 01:04:34;;;;;;;;;32.00;25.00;;;;;6.11;61.75;102512.41;2014903;27;3591049;-83
2023/01/28 01:05:45;;;;;;;;;35.67;28.00;;;;;6.08;61.86;102503.66;2034941;27;3599202;-83
2023/01/28 01:06:57;;;;;;;;;34.60;26.80;;;;;6.07;61.93;102509.72;2040390;27;3589825;-83
2023/01/28 01:08:09;;;;;;;;;30.40;24.80;;;;;6.11;61.82;102515.00;2021209;27;3587688;-83
2023/01/28 01:09:21;;;;;;;;;29.00;24.60;;;;;6.08;61.82;102514.13;2045010;27;3580400;-83
2023/01/28 01:10:34;;;;;;;;;30.00;25.80;;;;;6.10;61.99;102519.34;2042354;28;3583521;-83
2023/01/28 01:11:45;;;;;;;;;30.67;27.33;;;;;6.11;61.64;102520.22;2030633;27;3591922;-83
2023/01/28 01:12:57;;;;;;;;;28.00;16.33;;;;;6.08;62.08;102516.72;2043352;27;2840930;-83
2023/01/28 01:14:10;;;;;;;;;28.67;25.33;;;;;6.10;61.55;102516.72;2023959;27;3579406;-83
2023/01/28 01:15:21;;;;;;;;;33.00;25.67;;;;;6.11;61.81;102521.13;2023865;27;3593969;-83
2023/01/28 01:16:35;;;;;;;;;24.00;22.00;;;;;6.11;61.98;102515.88;2040269;28;3579394;-83
2023/01/28 01:17:47;;;;;;;;;29.33;24.00;;;;;6.15;61.80;102524.66;2023791;28;3581501;-82
2023/01/28 01:18:59;;;;;;;;;31.33;25.00;;;;;6.14;62.14;102518.56;2023952;27;3605437;-83
2023/01/28 01:20:15;;;;;;;;;25.80;21.20;;;;;6.14;61.53;102525.50;2016761;27;3575189;-83
2023/01/28 01:21:28;;;;;;;;;27.00;26.67;;;;;6.13;61.42;102522.00;2024913;27;3578365;-83
2023/01/28 01:22:39;;;;;;;;;31.00;26.00;;;;;6.14;61.46;102530.72;2025334;27;2847147;-83
2023/01/28 01:23:51;;;;;;;;;29.40;25.20;;;;;6.11;61.34;102530.66;2042984;27;3589806;-84
2023/01/28 01:25:04;;;;;;;;;32.33;25.67;;;;;6.13;61.65;102544.63;2025739;27;3587735;-83
2023/01/28 01:26:16;;;;;;;;;22.33;21.00;;;;;6.10;61.55;102535.00;2025333;27;2829574;-83
2023/01/28 01:27:27;;;;;;;;;30.33;26.33;;;;;6.05;61.41;102529.69;2024567;27;3587782;-84
2023/01/28 01:28:39;;;;;;;;;26.33;18.67;;;;;6.03;61.47;102533.13;2039780;27;3579429;-83
2023/01/28 01:29:51;;;;;;;;;29.33;24.00;;;;;6.01;61.59;102530.50;2040741;27;3587124;-83
2023/01/28 01:31:05;;;;;;;;;28.33;23.00;;;;;6.01;60.98;102534.84;2040804;27;3583564;-82
2023/01/28 01:32:17;;;;;;;;;33.33;27.00;;;;;5.95;61.43;102536.50;2023961;28;3591953;-83
2023/01/28 01:33:29;;;;;;;;;35.00;28.67;;;;;5.94;61.57;102539.97;2035598;27;3588090;-83
2023/01/28 01:34:41;;;;;;;;;25.00;20.67;;;;;5.91;61.92;102528.59;2028414;27;2831646;-83
2023/01/28 01:35:55;;;;;;;;;27.67;20.50;;;;;5.93;61.61;102538.22;2060608;27;1836775;-83
2023/01/28 01:37:07;;;;;;;;;28.00;24.00;;;;;5.91;61.74;102533.81;2006569;27;2841992;-83
2023/01/28 01:38:18;;;;;;;;;30.33;22.33;;;;;5.93;61.81;102543.44;2000428;28;3583580;-84
2023/01/28 01:39:30;;;;;;;;;26.33;22.00;;;;;5.93;61.75;102539.94;2040161;28;3574202;-83
2023/01/28 01:40:42;;;;;;;;;30.67;25.00;;;;;5.91;61.06;102537.31;2039353;27;3589139;-83
2023/01/28 01:41:54;;;;;;;;;27.33;25.00;;;;;5.91;61.52;102542.53;2040858;27;3578372;-83
2023/01/28 01:43:25;;;;;;;;;28.80;22.40;;;;;5.90;61.57;102538.16;2045222;27;3580420;-83
2023/01/28 01:45:05;;;;;;;;;24.00;21.33;;;;;5.91;61.48;102539.03;2023931;27;3585651;-83
2023/01/28 01:46:24;;;;;;;;;29.00;23.00;;;;;5.89;61.39;102535.53;2028694;27;3587798;-84
2023/01/28 01:47:46;;;;;;;;;28.67;21.83;;;;;5.91;61.69;102542.53;2048809;27;2854404;-83
2023/01/28 01:49:13;;;;;;;;;37.00;24.33;;;;;5.92;61.73;102551.25;2024667;27;3609661;-84
2023/01/28 01:50:26;;;;;;;;;30.50;24.00;;;;;5.93;61.85;102542.56;2025859;27;2849267;-83
2023/01/28 01:51:40;;;;;;;;;25.17;20.33;;;;;5.93;61.35;102540.81;2056990;27;1840377;-83
2023/01/28 01:52:56;;;;;;;;;23.00;19.67;;;;;5.93;61.55;102533.00;1999743;27;3571061;-83
2023/01/28 01:54:09;;;;;;;;;27.50;23.50;;;;;5.97;61.33;102534.78;2042285;28;2849274;-83
2023/01/28 01:55:24;;;;;;;;;24.67;21.67;;;;;5.99;61.47;102528.72;2016356;27;3574179;-83
2023/01/28 01:56:38;;;;;;;;;31.50;23.00;;;;;5.97;61.43;102529.56;2032934;27;2852353;-83
2023/01/28 01:57:55;;;;;;;;;26.00;19.17;;;;;5.98;61.17;102533.06;2036429;27;1840488;-83
2023/01/28 01:59:12;;;;;;;;;27.00;22.67;;;;;5.97;61.33;102536.53;2007202;27;3592959;-83
2023/01/28 02:00:23;;;;;;;;;24.00;19.67;;;;;5.97;61.38;102536.53;2028010;27;3562713;-83
2023/01/28 02:01:35;;;;;;;;;34.00;23.00;;;;;5.97;61.17;102536.53;2037496;27;3599233;-84
2023/01/28 02:02:49;;;;;;;;;23.00;20.67;;;;;5.96;60.85;102547.81;2037061;27;2825404;-83
2023/01/28 02:04:11;;;;;;;;;29.60;22.80;;;;;5.91;61.11;102529.50;2043573;27;2852308;-83
2023/01/28 02:05:24;;;;;;;;;27.67;24.67;;;;;5.90;60.91;102537.31;2001183;27;3587735;-83
2023/01/28 02:06:36;;;;;;;;;31.00;23.00;;;;;5.90;60.93;102542.53;2025658;27;2849271;-83
2023/01/28 02:07:53;;;;;;;;;21.67;18.00;;;;;5.89;61.17;102540.75;2007020;27;2824256;-83
2023/01/28 02:09:28;;;;;;;;;30.00;19.33;;;;;5.88;61.19;102536.41;2029431;27;3601301;-83
2023/01/28 02:10:40;;;;;;;;;22.67;21.00;;;;;5.89;61.18;102530.31;1999603;28;3571081;-83
2023/01/28 02:11:55;;;;;;;;;24.67;18.67;;;;;5.88;60.99;102532.03;2037570;27;2829443;-83
2023/01/28 02:13:07;;;;;;;;;28.00;23.00;;;;;5.88;61.71;102532.03;2023875;28;3572130;-84
2023/01/28 02:14:23;;;;;;;;;31.83;21.50;;;;;5.85;61.26;102527.66;2058111;27;2849651;-83
2023/01/28 02:15:36;;;;;;;;;27.00;20.60;;;;;5.85;61.01;102535.47;2022858;27;2844087;-83
2023/01/28 02:16:48;;;;;;;;;25.00;16.67;;;;;5.84;61.27;102533.75;2009616;27;3587756;-83
2023/01/28 02:18:00;;;;;;;;;27.20;22.80;;;;;5.83;61.23;102538.91;2044928;27;3582491;-83
2023/01/28 02:19:12;;;;;;;;;26.67;24.00;;;;;5.83;61.43;102542.41;2040258;27;3583000;-83
2023/01/28 02:21:13;;;;;;;;;23.00;17.00;;;;;5.83;61.56;102537.19;2036401;28;2824216;-83
2023/01/28 02:22:37;;;;;;;;;27.00;18.40;;;;;5.87;61.65;102538.13;2042881;28;2839830;-83
2023/01/28 02:23:54;;;;;;;;;28.67;21.17;;;;;5.87;61.57;102542.47;2037476;27;1846114;-83
2023/01/28 02:25:32;;;;;;;;;30.67;22.33;;;;;5.88;61.37;102544.22;2007324;27;3586713;-83
2023/01/28 02:27:08;;;;;;;;;30.67;26.67;;;;;5.88;61.55;102547.69;2024588;27;3586709;-83
2023/01/28 02:29:04;;;;;;;;;28.33;23.67;;;;;5.85;61.62;102545.06;2024340;28;3584606;-84
2023/01/28 02:30:23;;;;;;;;;27.67;23.67;;;;;5.86;61.51;102546.81;2023478;27;3583594;-84
2023/01/28 02:31:49;;;;;;;;;31.67;21.33;;;;;5.84;61.26;102548.50;2029463;27;3604897;-84
2023/01/28 02:33:09;;;;;;;;;24.00;23.00;;;;;5.84;61.42;102546.78;2008242;27;3564812;-83
2023/01/28 02:34:35;;;;;;;;;30.00;23.00;;;;;5.78;61.35;102546.66;2031567;27;3589818;-83
2023/01/28 02:35:52;;;;;;;;;23.67;21.00;;;;;5.78;61.35;102546.66;2026588;27;3575308;-83
2023/01/28 02:37:16;;;;;;;;;22.00;20.00;;;;;5.78;61.54;102546.66;2031665;27;2820064;-83
2023/01/28 02:38:39;;;;;;;;;30.33;22.67;;;;;5.77;61.82;102549.25;2024263;27;3592979;-83
2023/01/28 02:39:56;;;;;;;;;31.33;23.67;;;;;5.75;61.83;102549.25;2029130;27;3592943;-83
2023/01/28 02:41:17;;;;;;;;;32.33;23.00;;;;;5.76;61.74;102547.50;2031878;27;3601281;-84
2023/01/28 02:42:32;;;;;;;;;34.33;25.00;;;;;5.77;61.70;102547.53;2007946;27;3600223;-83
2023/01/28 02:43:46;;;;;;;;;31.00;24.67;;;;;5.74;61.70;102543.16;2025748;27;3590852;-83
2023/01/28 02:44:56;;;;;;;;;22.50;20.50;;;;;5.72;61.75;102544.84;2025671;27;2825310;-83
2023/01/28 02:47:57;;;;;;;;;27.00;26.33;;;;;5.77;61.41;102542.31;2030611;27;3571065;-83
2023/01/28 02:49:19;;;;;;;;;29.00;23.33;;;;;5.80;61.25;102546.72;2024435;27;3577796;-83
2023/01/28 02:50:49;;;;;;;;;30.33;24.00;;;;;5.79;61.34;102544.94;2031475;27;3582515;-83
2023/01/28 02:52:11;;;;;;;;;31.00;24.00;;;;;5.79;61.59;102553.66;2029670;27;2856548;-83
2023/01/28 02:53:44;;;;;;;;;33.33;25.33;;;;;5.79;61.55;102555.38;2000629;27;3594020;-83
2023/01/28 02:55:12;;;;;;;;;29.67;24.67;;;;;5.78;61.74;102551.88;2023300;28;3579426;-83
2023/01/28 02:56:42;;;;;;;;;37.00;27.33;;;;;5.77;61.76;102552.75;2023010;28;3595007;-83
2023/01/28 02:58:09;;;;;;;;;33.50;25.50;;;;;5.79;61.74;102556.28;2024980;27;2852785;-84
2023/01/28 02:59:53;;;;;;;;;25.33;24.67;;;;;5.80;61.43;102565.84;2032109;27;3566898;-83
2023/01/28 03:01:25;;;;;;;;;29.50;25.00;;;;;5.80;61.78;102557.16;2015745;28;2845089;-83
2023/01/28 03:02:48;;;;;;;;;34.67;29.33;;;;;5.79;61.53;102558.88;2031121;27;3596135;-84
2023/01/28 03:04:25;;;;;;;;;29.00;21.00;;;;;5.78;62.02;102559.72;2008235;27;2841983;-83
2023/01/28 03:06:02;;;;;;;;;25.00;23.00;;;;;5.78;61.58;102548.44;2035309;27;3577372;-83
2023/01/28 03:07:19;;;;;;;;;34.67;30.33;;;;;5.74;60.97;102552.69;2024048;27;3591906;-84
2023/01/28 03:10:11;;;;;;;;;28.00;27.50;;;;;5.70;61.86;102557.00;2029520;27;2845069;-83
2023/01/28 03:37:00;;;;;;;;;33.33;26.33;;;;;5.74;61.94;102560.53;2031554;27;3587763;-83
2023/01/28 03:38:21;;;;;;;;;29.33;26.67;;;;;5.71;61.76;102561.34;2039387;27;3573155;-83
2023/01/28 03:39:33;;;;;;;;;29.00;25.00;;;;;5.74;61.84;102573.56;2031828;27;3596052;-83
2023/01/28 03:40:55;;;;;;;;;32.00;26.33;;;;;5.75;61.68;102564.91;2032242;27;3585643;-83
2023/01/28 03:42:08;;;;;;;;;26.67;19.67;;;;;5.77;61.98;102573.63;2029773;27;3590973;-83
2023/01/28 03:43:20;;;;;;;;;31.33;25.67;;;;;5.74;61.61;102579.69;2026899;27;3594387;-83
2023/01/28 03:44:51;;;;;;;;;33.60;27.40;;;;;5.73;61.45;102571.81;2034764;27;3584586;-83
2023/01/28 03:46:05;;;;;;;;;30.33;20.33;;;;;5.74;61.40;102574.47;2023950;27;3586681;-83
2023/01/28 03:47:21;;;;;;;;;41.33;31.00;;;;;5.76;61.47;102576.19;2029861;27;3582580;-83
2023/01/28 03:48:32;;;;;;;;;27.00;24.50;;;;;5.76;61.52;102582.31;2024392;28;2837817;-84
2023/01/28 03:49:48;;;;;;;;;34.33;29.00;;;;;5.71;61.97;102578.72;2020687;28;3607534;-83
2023/01/28 03:51:00;;;;;;;;;25.00;21.33;;;;;5.69;61.76;102568.28;1992042;28;3563801;-83
2023/01/28 03:52:12;;;;;;;;;30.00;25.00;;;;;5.68;61.53;102576.94;2029974;28;3604424;-83
2023/01/28 03:53:24;;;;;;;;;32.60;26.20;;;;;5.68;61.78;102581.31;2031401;27;3589779;-83
2023/01/28 03:54:35;;;;;;;;;34.00;26.00;;;;;5.67;61.71;102576.94;2040118;27;3576250;-83
2023/01/28 03:55:50;;;;;;;;;35.67;27.67;;;;;5.66;61.75;102576.03;2038227;27;3586725;-83
2023/01/28 03:57:02;;;;;;;;;32.00;27.33;;;;;5.68;61.42;102576.09;2026829;27;3587736;-82
2023/01/28 03:58:15;;;;;;;;;32.00;26.00;;;;;5.66;61.50;102567.34;2031687;27;3572146;-83
2023/01/28 03:59:25;;;;;;;;;29.50;26.50;;;;;5.68;61.70;102579.56;2032390;27;2835689;-83
2023/01/28 04:00:41;;;;;;;;;28.67;24.67;;;;;5.70;61.76;102584.81;2047960;27;3580471;-83
2023/01/28 04:01:52;;;;;;;;;28.33;23.67;;;;;5.69;61.55;102580.44;2038890;27;3584622;-83
2023/01/28 04:03:15;;;;;;;;;35.67;29.67;;;;;5.69;61.50;102575.22;2046244;27;3605431;-83
2023/01/28 04:04:27;;;;;;;;;36.50;29.00;;;;;5.69;61.30;102570.00;2008234;27;2853381;-83
2023/01/28 04:05:38;;;;;;;;;32.50;22.50;;;;;5.66;61.45;102575.16;2015543;27;2860688;-82
2023/01/28 04:06:52;;;;;;;;;33.67;27.33;;;;;5.65;61.43;102579.53;2022871;27;3594009;-83
2023/01/28 04:08:02;;;;;;;;;29.00;25.00;;;;;5.65;61.38;102583.84;2000678;27;2854387;-83
2023/01/28 04:09:14;;;;;;;;;31.67;26.67;;;;;5.63;61.16;102581.19;2020951;27;3584594;-83
2023/01/28 04:10:26;;;;;;;;;38.00;31.67;;;;;5.62;61.63;102577.75;2045701;27;3580429;-83
2023/01/28 04:11:41;;;;;;;;;32.20;24.80;;;;;5.60;61.52;102584.66;2043503;27;3590835;-83
2023/01/28 04:12:53;;;;;;;;;28.50;23.00;;;;;5.59;61.39;102585.50;2004289;27;2839129;-83
2023/01/28 04:14:03;;;;;;;;;26.00;21.00;;;;;5.59;61.08;102582.00;2013395;27;2848189;-83
2023/01/28 04:15:15;;;;;;;;;32.33;28.33;;;;;5.61;61.40;102589.00;2023809;27;3590864;-83
2023/01/28 04:16:27;;;;;;;;;32.33;29.00;;;;;5.59;61.84;102589.84;2031061;27;3599256;-83
2023/01/28 04:17:43;;;;;;;;;30.67;25.00;;;;;5.61;61.67;102590.75;2040399;27;3590979;-83
2023/01/28 04:18:54;;;;;;;;;25.33;21.67;;;;;5.59;61.56;102592.44;2025904;27;2844096;-83
2023/01/28 04:20:05;;;;;;;;;22.00;21.00;;;;;5.58;61.46;102591.56;2032726;27;2831523;-83
2023/01/28 04:21:17;;;;;;;;;33.67;25.67;;;;;5.57;61.44;102595.03;2010305;27;3608601;-83
2023/01/28 04:22:29;;;;;;;;;21.33;19.33;;;;;5.61;61.78;102593.34;2035363;27;3566922;-83
2023/01/28 04:23:41;;;;;;;;;37.00;30.67;;;;;5.61;61.67;102594.22;2041520;27;3597133;-84
2023/01/28 04:24:53;;;;;;;;;26.33;22.00;;;;;5.61;61.57;102583.78;2045710;27;3575219;-83
2023/01/28 04:26:04;;;;;;;;;23.00;21.00;;;;;5.64;61.44;102596.03;2047362;27;2826398;-83
2023/01/28 04:27:16;;;;;;;;;30.33;24.33;;;;;5.66;61.41;102596.91;2032955;27;3575235;-83
2023/01/28 04:28:28;;;;;;;;;28.67;25.00;;;;;5.65;61.40;102589.06;2048842;27;3583625;-84
2023/01/28 04:29:40;;;;;;;;;24.67;23.33;;;;;5.68;60.99;102602.19;2024262;28;3572119;-83
2023/01/28 04:30:52;;;;;;;;;31.00;24.60;;;;;5.68;61.25;102594.34;2035082;28;3587724;-83
2023/01/28 04:32:03;;;;;;;;;32.50;22.00;;;;;5.67;61.00;102593.47;2025739;28;1849228;-83
2023/01/28 04:33:14;;;;;;;;;28.00;23.00;;;;;5.69;60.88;102601.31;2003017;27;2840881;-83
2023/01/28 04:34:25;;;;;;;;;33.33;24.67;;;;;5.68;61.26;102604.78;2026721;27;3593989;-83
2023/01/28 04:35:37;;;;;;;;;31.33;28.00;;;;;5.68;60.99;102608.25;2048614;27;3577343;-83
2023/01/28 04:36:49;;;;;;;;;32.67;25.00;;;;;5.68;61.31;102600.44;2056326;27;3588821;-83
2023/01/28 04:38:01;;;;;;;;;26.33;23.00;;;;;5.67;61.24;102608.25;2023075;27;3559659;-82
2023/01/28 04:39:13;;;;;;;;;28.00;26.00;;;;;5.67;61.24;102611.75;2047024;27;3595053;-83
2023/01/28 04:40:25;;;;;;;;;28.80;27.60;;;;;5.67;61.10;102598.69;2054502;27;3587691;-83
2023/01/28 04:41:37;;;;;;;;;36.20;26.60;;;;;5.70;61.13;102614.41;2053257;27;3596084;-83
2023/01/28 04:42:54;;;;;;;;;30.00;26.00;;;;;5.69;60.69;102611.75;2024391;27;3583577;-83
2023/01/28 04:44:05;;;;;;;;;32.33;25.67;;;;;5.69;61.32;102611.75;2024241;28;3587779;-83
2023/01/28 04:45:16;;;;;;;;;26.00;19.00;;;;;5.69;61.46;102614.38;2038580;27;2844002;-83
2023/01/28 04:46:31;;;;;;;;;31.00;27.67;;;;;5.71;61.12;102621.38;2022844;27;3576250;-83
2023/01/28 04:47:42;;;;;;;;;32.00;24.33;;;;;5.68;60.97;102621.31;2023923;27;3593934;-83
2023/01/28 04:48:54;;;;;;;;;27.33;23.00;;;;;5.66;60.72;102619.50;2039712;27;3579395;-83
2023/01/28 04:50:06;;;;;;;;;24.00;22.40;;;;;5.66;60.93;102612.56;2054306;27;1850945;-83
2023/01/28 04:51:18;;;;;;;;;31.67;24.67;;;;;5.65;61.00;102616.06;2024198;28;3600243;-83
2023/01/28 04:52:30;;;;;;;;;31.33;23.33;;;;;5.67;60.91;102618.69;2014554;27;3587767;-83
2023/01/28 04:53:42;;;;;;;;;28.00;25.00;;;;;5.68;61.52;102620.44;2040984;27;3581505;-83
2023/01/28 04:54:54;;;;;;;;;28.00;22.00;;;;;5.70;60.87;102627.47;2042601;27;3563769;-84
2023/01/28 04:56:06;;;;;;;;;27.67;23.00;;;;;5.69;60.93;102614.38;2033457;27;3572122;-83
2023/01/28 04:57:18;;;;;;;;;37.00;25.20;;;;;5.70;61.14;102621.34;2044243;27;3617716;-83
2023/01/28 04:58:29;;;;;;;;;26.33;24.33;;;;;5.71;61.46;102629.19;2017475;28;3575260;-83
2023/01/28 04:59:41;;;;;;;;;27.20;25.00;;;;;5.72;61.33;102628.34;2037141;28;3584602;-83
2023/01/28 05:00:58;;;;;;;;;29.67;25.00;;;;;5.72;61.41;102628.34;2040640;28;3588761;-83
2023/01/28 05:02:10;;;;;;;;;35.33;25.00;;;;;5.75;61.13;102624.94;2024091;28;3606863;-83
2023/01/28 05:03:22;;;;;;;;;29.40;23.20;;;;;5.78;61.33;102630.19;2020435;27;3580431;-83
2023/01/28 05:04:34;;;;;;;;;30.67;23.67;;;;;5.78;61.23;102626.72;2030227;27;3576258;-83
2023/01/28 05:05:45;;;;;;;;;40.00;29.33;;;;;5.79;60.86;102625.84;2046482;27;3610697;-83
2023/01/28 05:06:58;;;;;;;;;32.00;30.00;;;;;5.80;60.85;102630.22;2034750;27;3597062;-83
2023/01/28 05:08:09;;;;;;;;;32.33;26.33;;;;;5.80;60.56;102625.84;2016267;28;3590888;-83
2023/01/28 05:09:24;;;;;;;;;34.60;28.20;;;;;5.78;60.76;102632.78;2051478;27;3586676;-84
2023/01/28 05:10:35;;;;;;;;;30.33;24.33;;;;;5.76;60.97;102621.44;2024882;27;3582532;-83
2023/01/28 05:11:47;;;;;;;;;39.60;32.40;;;;;5.76;60.44;102624.06;2047527;27;3602282;-82
2023/01/28 05:12:59;;;;;;;;;35.00;26.00;;;;;5.72;60.74;102622.25;2016362;27;3598183;-83
2023/01/28 05:14:11;;;;;;;;;28.00;22.00;;;;;5.73;60.92;102613.56;2032063;27;3575260;-83
2023/01/28 05:15:23;;;;;;;;;31.67;28.33;;;;;5.73;61.07;102621.38;2046366;27;3585644;-83
2023/01/28 05:16:35;;;;;;;;;36.67;27.00;;;;;5.72;60.90;102615.31;2046574;27;3605509;-84
2023/01/28 05:17:47;;;;;;;;;43.67;33.00;;;;;5.72;60.67;102633.56;2018850;27;3604408;-83
2023/01/28 05:18:59;;;;;;;;;34.00;28.33;;;;;5.72;60.73;102627.47;2009620;28;3596108;-83
2023/01/28 05:20:12;;;;;;;;;29.67;25.67;;;;;5.70;60.87;102621.34;2008776;28;3582578;-83
2023/01/28 05:21:23;;;;;;;;;42.67;33.33;;;;;5.72;60.62;102630.97;2024883;27;3621059;-83
2023/01/28 05:22:35;;;;;;;;;35.00;30.00;;;;;5.73;60.99;102626.59;2022050;27;3581445;-83
2023/01/28 05:23:47;;;;;;;;;32.33;29.67;;;;;5.72;61.05;102638.78;2048790;27;3591931;-83
2023/01/28 05:25:00;;;;;;;;;37.00;29.67;;;;;5.74;60.78;102630.97;2018448;27;3591905;-83
2023/01/28 05:26:10;;;;;;;;;36.50;31.00;;;;;5.72;61.15;102630.09;2024641;28;2842993;-83
2023/01/28 05:27:23;;;;;;;;;35.33;28.33;;;;;5.75;60.91;102630.16;2039654;28;3596148;-84
2023/01/28 05:28:35;;;;;;;;;25.80;25.20;;;;;5.72;60.42;102630.97;2047691;27;3580400;-83
2023/01/28 05:29:45;;;;;;;;;32.00;29.00;;;;;5.72;60.73;102622.25;2039109;27;2838752;-83
2023/01/28 05:31:03;;;;;;;;;31.67;25.00;;;;;5.71;60.99;102626.59;2024387;27;3591886;-83
2023/01/28 05:32:14;;;;;;;;;39.33;28.33;;;;;5.73;60.71;102624.00;2025729;27;3585703;-84
2023/01/28 05:33:28;;;;;;;;;36.67;30.67;;;;;5.72;60.61;102630.09;2038003;27;3598140;-84
2023/01/28 05:34:40;;;;;;;;;31.33;29.67;;;;;5.70;61.10;102626.56;2017187;28;3594000;-83
2023/01/28 05:35:52;;;;;;;;;34.67;29.00;;;;;5.68;60.78;102623.91;2047185;27;3592284;-83
2023/01/28 05:37:04;;;;;;;;;33.00;28.40;;;;;5.70;61.16;102626.56;2025629;27;3581438;-83
2023/01/28 05:38:17;;;;;;;;;33.33;24.50;;;;;5.73;60.58;102631.81;2058262;27;2847088;-83
2023/01/28 05:39:30;;;;;;;;;37.60;27.60;;;;;5.72;61.04;102627.47;2020899;28;3620033;-83
2023/01/28 05:40:40;;;;;;;;;35.00;31.50;;;;;5.70;61.27;102630.06;2002330;28;2845048;-83
2023/01/28 05:41:52;;;;;;;;;37.20;32.00;;;;;5.70;61.06;102634.41;2033576;27;3592944;-83
2023/01/28 05:43:04;;;;;;;;;30.40;29.40;;;;;5.70;61.04;102632.69;2028107;27;3583918;-83
2023/01/28 05:44:16;;;;;;;;;40.33;29.33;;;;;5.71;61.35;102638.75;2038702;27;3607522;-83
2023/01/28 05:45:28;;;;;;;;;36.00;27.67;;;;;5.69;60.85;102630.91;2011042;27;3605443;-83
2023/01/28 05:46:44;;;;;;;;;34.80;28.60;;;;;5.71;61.32;102636.13;2021644;27;3584606;-83
2023/01/28 05:47:55;;;;;;;;;37.67;27.67;;;;;5.71;60.79;102633.53;2024191;27;3598113;-83
2023/01/28 05:49:11;;;;;;;;;36.67;26.67;;;;;5.72;60.88;102643.13;2040021;27;3584605;-83
2023/01/28 05:50:22;;;;;;;;;30.67;25.33;;;;;5.74;60.87;102644.03;2007266;27;3588805;-83
2023/01/28 05:51:34;;;;;;;;;32.80;26.40;;;;;5.70;60.98;102640.50;2030291;28;3596017;-83
2023/01/28 05:52:46;;;;;;;;;28.80;25.60;;;;;5.71;61.06;102647.47;2051792;27;3572068;-83
2023/01/28 05:53:58;;;;;;;;;33.60;29.40;;;;;5.72;60.83;102640.53;2051390;27;3587696;-83
2023/01/28 05:55:10;;;;;;;;;36.80;29.20;;;;;5.72;60.88;102640.53;2020834;27;3596565;-83
2023/01/28 05:56:22;;;;;;;;;41.67;29.00;;;;;5.69;60.36;102638.72;2016139;27;3619407;-83
2023/01/28 05:57:34;;;;;;;;;33.60;25.60;;;;;5.67;60.82;102637.81;2026242;27;3608587;-83
2023/01/28 05:58:46;;;;;;;;;32.40;28.60;;;;;5.70;61.23;102645.72;2020232;27;3593942;-83
2023/01/28 05:59:57;;;;;;;;;4.00;4.00;;;;;5.69;60.65;102640.44;2035224;27;2730505;-83
2023/01/28 06:01:08;;;;;;;;;32.33;28.33;;;;;5.68;60.98;102646.53;2007953;27;3598156;-83
2023/01/28 06:02:20;;;;;;;;;34.33;25.67;;;;;5.68;61.00;102647.41;2016501;27;3570100;-83
2023/01/28 06:03:32;;;;;;;;;30.00;25.33;;;;;5.66;60.94;102645.59;2038277;27;3575252;-83
2023/01/28 06:04:44;;;;;;;;;30.33;25.33;;;;;5.67;61.50;102650.00;2039731;28;3589853;-83